sensor_id;sensor_type;location;lat;lon;timestamp;P1;durP1;ratioP1;P2;durP2;ratioP2
80133;SDS011;69443;51.442;10.564;2023-04-30T00:01:53;4.47;;;3.20;;
80133;SDS011;69443;51.442;10.564;2023-04-30T00:04:19;2.13;;;1.75;;
80133;SDS011;69443;51.442;10.564;2023-04-30T00:06:45;4.15;;;2.85;;
80133;SDS011;69443;51.442;10.564;2023-04-30T00:09:10;3.95;;;2.58;;
80133;SDS011;69443;51.442;10.564;2023-04-30T00:11:35;3.20;;;2.20;;
80133;SDS011;69443;51.442;10.564;2023-04-30T00:14:01;3.13;;;2.55;;
80133;SDS011;69443;51.442;10.564;2023-04-30T00:16:26;1.95;;;1.80;;
80133;SDS011;69443;51.442;10.564;2023-04-30T00:18:52;4.00;;;2.13;;
80133;SDS011;69443;51.442;10.564;2023-04-30T00:21:17;3.92;;;2.75;;
80133;SDS011;69443;51.442;10.564;2023-04-30T00:23:42;3.08;;;2.42;;
80133;SDS011;69443;51.442;10.564;2023-04-30T00:26:08;5.28;;;2.97;;
80133;SDS011;69443;51.442;10.564;2023-04-30T00:28:33;3.97;;;2.83;;
80133;SDS011;69443;51.442;10.564;2023-04-30T00:30:58;4.68;;;2.67;;
80133;SDS011;69443;51.442;10.564;2023-04-30T00:33:24;4.10;;;2.75;;
80133;SDS011;69443;51.442;10.564;2023-04-30T00:35:49;3.40;;;1.70;;
80133;SDS011;69443;51.442;10.564;2023-04-30T00:38:15;5.22;;;2.65;;
80133;SDS011;69443;51.442;10.564;2023-04-30T00:40:40;4.32;;;2.45;;
80133;SDS011;69443;51.442;10.564;2023-04-30T00:43:07;2.15;;;1.52;;
80133;SDS011;69443;51.442;10.564;2023-04-30T00:45:32;3.08;;;2.17;;
80133;SDS011;69443;51.442;10.564;2023-04-30T00:47:57;1.40;;;1.30;;
80133;SDS011;69443;51.442;10.564;2023-04-30T00:50:23;3.17;;;2.22;;
80133;SDS011;69443;51.442;10.564;2023-04-30T00:52:49;2.63;;;2.13;;
80133;SDS011;69443;51.442;10.564;2023-04-30T00:55:14;3.22;;;2.25;;
80133;SDS011;69443;51.442;10.564;2023-04-30T00:57:41;4.15;;;2.90;;
80133;SDS011;69443;51.442;10.564;2023-04-30T01:00:06;3.70;;;3.05;;
80133;SDS011;69443;51.442;10.564;2023-04-30T01:02:37;4.57;;;2.97;;
80133;SDS011;69443;51.442;10.564;2023-04-30T01:05:03;5.65;;;2.55;;
80133;SDS011;69443;51.442;10.564;2023-04-30T01:07:29;5.10;;;3.40;;
80133;SDS011;69443;51.442;10.564;2023-04-30T01:09:55;5.32;;;3.47;;
80133;SDS011;69443;51.442;10.564;2023-04-30T01:15:10;4.63;;;3.28;;
80133;SDS011;69443;51.442;10.564;2023-04-30T01:20:38;3.70;;;2.85;;
80133;SDS011;69443;51.442;10.564;2023-04-30T01:23:18;4.57;;;2.78;;
80133;SDS011;69443;51.442;10.564;2023-04-30T01:28:41;1.20;;;1.10;;
80133;SDS011;69443;51.442;10.564;2023-04-30T01:31:12;3.05;;;2.17;;
80133;SDS011;69443;51.442;10.564;2023-04-30T01:33:38;5.05;;;3.00;;
80133;SDS011;69443;51.442;10.564;2023-04-30T01:36:09;4.65;;;2.80;;
80133;SDS011;69443;51.442;10.564;2023-04-30T01:42:28;4.75;;;2.83;;
80133;SDS011;69443;51.442;10.564;2023-04-30T01:47:33;4.63;;;3.13;;
80133;SDS011;69443;51.442;10.564;2023-04-30T01:52:59;4.63;;;3.00;;
80133;SDS011;69443;51.442;10.564;2023-04-30T01:55:31;4.93;;;2.63;;
80133;SDS011;69443;51.442;10.564;2023-04-30T01:58:04;4.57;;;1.70;;
80133;SDS011;69443;51.442;10.564;2023-04-30T02:00:33;2.17;;;1.60;;
80133;SDS011;69443;51.442;10.564;2023-04-30T02:02:58;3.25;;;2.67;;
80133;SDS011;69443;51.442;10.564;2023-04-30T02:05:24;4.90;;;3.10;;
80133;SDS011;69443;51.442;10.564;2023-04-30T02:07:50;2.97;;;2.42;;
80133;SDS011;69443;51.442;10.564;2023-04-30T02:10:19;4.32;;;2.28;;
80133;SDS011;69443;51.442;10.564;2023-04-30T02:12:45;1.58;;;1.48;;
80133;SDS011;69443;51.442;10.564;2023-04-30T02:15:11;3.97;;;1.90;;
80133;SDS011;69443;51.442;10.564;2023-04-30T02:17:37;1.88;;;1.48;;
80133;SDS011;69443;51.442;10.564;2023-04-30T02:20:02;3.00;;;2.30;;
80133;SDS011;69443;51.442;10.564;2023-04-30T02:22:28;3.10;;;2.50;;
80133;SDS011;69443;51.442;10.564;2023-04-30T02:24:54;2.78;;;1.65;;
80133;SDS011;69443;51.442;10.564;2023-04-30T02:27:20;2.60;;;2.25;;
80133;SDS011;69443;51.442;10.564;2023-04-30T02:29:47;1.70;;;1.10;;
80133;SDS011;69443;51.442;10.564;2023-04-30T02:32:13;3.95;;;2.35;;
80133;SDS011;69443;51.442;10.564;2023-04-30T02:34:38;4.47;;;2.55;;
80133;SDS011;69443;51.442;10.564;2023-04-30T02:37:06;4.28;;;2.42;;
80133;SDS011;69443;51.442;10.564;2023-04-30T02:39:32;3.65;;;2.17;;
80133;SDS011;69443;51.442;10.564;2023-04-30T02:41:57;4.65;;;2.50;;
80133;SDS011;69443;51.442;10.564;2023-04-30T02:44:23;1.65;;;1.17;;
80133;SDS011;69443;51.442;10.564;2023-04-30T02:46:49;2.40;;;1.83;;
80133;SDS011;69443;51.442;10.564;2023-04-30T02:49:14;2.97;;;2.40;;
80133;SDS011;69443;51.442;10.564;2023-04-30T02:51:40;5.78;;;2.90;;
80133;SDS011;69443;51.442;10.564;2023-04-30T02:54:05;3.20;;;2.38;;
80133;SDS011;69443;51.442;10.564;2023-04-30T02:56:30;1.90;;;1.65;;
80133;SDS011;69443;51.442;10.564;2023-04-30T02:58:56;6.10;;;3.10;;
80133;SDS011;69443;51.442;10.564;2023-04-30T03:01:21;3.67;;;2.10;;
80133;SDS011;69443;51.442;10.564;2023-04-30T03:03:46;1.38;;;1.27;;
80133;SDS011;69443;51.442;10.564;2023-04-30T03:06:12;2.55;;;1.92;;
80133;SDS011;69443;51.442;10.564;2023-04-30T03:08:37;4.57;;;2.00;;
80133;SDS011;69443;51.442;10.564;2023-04-30T03:11:03;7.05;;;2.80;;
80133;SDS011;69443;51.442;10.564;2023-04-30T03:13:28;1.98;;;1.23;;
80133;SDS011;69443;51.442;10.564;2023-04-30T03:15:57;2.75;;;2.25;;
80133;SDS011;69443;51.442;10.564;2023-04-30T03:18:26;4.63;;;2.67;;
80133;SDS011;69443;51.442;10.564;2023-04-30T03:20:52;1.92;;;1.83;;
80133;SDS011;69443;51.442;10.564;2023-04-30T03:23:18;3.53;;;2.97;;
80133;SDS011;69443;51.442;10.564;2023-04-30T03:25:43;4.63;;;3.10;;
80133;SDS011;69443;51.442;10.564;2023-04-30T03:28:09;1.27;;;0.98;;
80133;SDS011;69443;51.442;10.564;2023-04-30T03:30:34;2.35;;;1.15;;
80133;SDS011;69443;51.442;10.564;2023-04-30T03:32:59;8.80;;;3.72;;
80133;SDS011;69443;51.442;10.564;2023-04-30T03:35:25;4.18;;;3.38;;
80133;SDS011;69443;51.442;10.564;2023-04-30T03:37:51;3.83;;;2.97;;
80133;SDS011;69443;51.442;10.564;2023-04-30T03:40:16;6.07;;;2.90;;
80133;SDS011;69443;51.442;10.564;2023-04-30T03:42:42;4.25;;;3.05;;
80133;SDS011;69443;51.442;10.564;2023-04-30T03:45:07;5.18;;;3.15;;
80133;SDS011;69443;51.442;10.564;2023-04-30T03:47:34;4.57;;;2.50;;
80133;SDS011;69443;51.442;10.564;2023-04-30T03:50:02;3.92;;;2.60;;
80133;SDS011;69443;51.442;10.564;2023-04-30T03:52:28;5.32;;;3.05;;
80133;SDS011;69443;51.442;10.564;2023-04-30T03:54:55;4.50;;;2.78;;
80133;SDS011;69443;51.442;10.564;2023-04-30T03:57:20;5.20;;;3.13;;
80133;SDS011;69443;51.442;10.564;2023-04-30T03:59:46;6.45;;;2.80;;
80133;SDS011;69443;51.442;10.564;2023-04-30T04:02:11;3.10;;;2.47;;
80133;SDS011;69443;51.442;10.564;2023-04-30T04:04:37;2.97;;;2.50;;
80133;SDS011;69443;51.442;10.564;2023-04-30T04:07:03;3.17;;;2.50;;
80133;SDS011;69443;51.442;10.564;2023-04-30T04:09:28;4.47;;;3.08;;
80133;SDS011;69443;51.442;10.564;2023-04-30T04:11:54;4.88;;;2.50;;
80133;SDS011;69443;51.442;10.564;2023-04-30T04:14:20;1.85;;;1.67;;
80133;SDS011;69443;51.442;10.564;2023-04-30T04:16:45;2.13;;;1.90;;
80133;SDS011;69443;51.442;10.564;2023-04-30T04:19:11;4.97;;;2.35;;
80133;SDS011;69443;51.442;10.564;2023-04-30T04:21:37;7.63;;;3.13;;
80133;SDS011;69443;51.442;10.564;2023-04-30T04:24:02;5.25;;;3.30;;
80133;SDS011;69443;51.442;10.564;2023-04-30T04:26:32;5.38;;;3.05;;
80133;SDS011;69443;51.442;10.564;2023-04-30T04:28:59;5.00;;;2.70;;
80133;SDS011;69443;51.442;10.564;2023-04-30T04:31:24;4.43;;;3.10;;
80133;SDS011;69443;51.442;10.564;2023-04-30T04:33:50;4.60;;;2.63;;
80133;SDS011;69443;51.442;10.564;2023-04-30T04:38:47;6.07;;;3.03;;
80133;SDS011;69443;51.442;10.564;2023-04-30T04:41:13;4.85;;;3.03;;
80133;SDS011;69443;51.442;10.564;2023-04-30T04:43:38;5.85;;;4.03;;
80133;SDS011;69443;51.442;10.564;2023-04-30T04:46:03;7.97;;;3.25;;
80133;SDS011;69443;51.442;10.564;2023-04-30T04:48:29;5.97;;;3.50;;
80133;SDS011;69443;51.442;10.564;2023-04-30T04:50:55;4.88;;;3.35;;
80133;SDS011;69443;51.442;10.564;2023-04-30T04:53:21;6.65;;;3.63;;
80133;SDS011;69443;51.442;10.564;2023-04-30T04:55:46;4.68;;;3.40;;
80133;SDS011;69443;51.442;10.564;2023-04-30T04:58:11;4.68;;;3.47;;
80133;SDS011;69443;51.442;10.564;2023-04-30T05:00:38;6.78;;;3.55;;
80133;SDS011;69443;51.442;10.564;2023-04-30T05:03:03;5.60;;;2.80;;
80133;SDS011;69443;51.442;10.564;2023-04-30T05:05:28;5.65;;;3.53;;
80133;SDS011;69443;51.442;10.564;2023-04-30T05:07:54;10.10;;;4.07;;
80133;SDS011;69443;51.442;10.564;2023-04-30T05:10:20;9.50;;;4.18;;
80133;SDS011;69443;51.442;10.564;2023-04-30T05:12:45;6.80;;;3.72;;
80133;SDS011;69443;51.442;10.564;2023-04-30T05:15:11;5.75;;;3.90;;
80133;SDS011;69443;51.442;10.564;2023-04-30T05:17:36;5.60;;;3.13;;
80133;SDS011;69443;51.442;10.564;2023-04-30T05:20:02;7.53;;;3.42;;
80133;SDS011;69443;51.442;10.564;2023-04-30T05:22:27;5.43;;;3.70;;
80133;SDS011;69443;51.442;10.564;2023-04-30T05:24:52;4.78;;;3.17;;
80133;SDS011;69443;51.442;10.564;2023-04-30T05:27:18;6.90;;;4.20;;
80133;SDS011;69443;51.442;10.564;2023-04-30T05:29:43;7.35;;;3.60;;
80133;SDS011;69443;51.442;10.564;2023-04-30T05:32:09;5.25;;;4.03;;
80133;SDS011;69443;51.442;10.564;2023-04-30T05:34:34;6.68;;;4.05;;
80133;SDS011;69443;51.442;10.564;2023-04-30T05:37:00;6.80;;;3.90;;
80133;SDS011;69443;51.442;10.564;2023-04-30T05:39:25;5.85;;;3.85;;
80133;SDS011;69443;51.442;10.564;2023-04-30T05:41:51;8.82;;;3.83;;
80133;SDS011;69443;51.442;10.564;2023-04-30T05:44:16;10.57;;;4.22;;
80133;SDS011;69443;51.442;10.564;2023-04-30T05:46:41;5.22;;;3.55;;
80133;SDS011;69443;51.442;10.564;2023-04-30T05:49:07;7.28;;;4.10;;
80133;SDS011;69443;51.442;10.564;2023-04-30T05:51:32;6.95;;;4.30;;
80133;SDS011;69443;51.442;10.564;2023-04-30T05:53:58;5.60;;;3.80;;
80133;SDS011;69443;51.442;10.564;2023-04-30T05:56:24;6.75;;;4.47;;
80133;SDS011;69443;51.442;10.564;2023-04-30T05:58:50;8.10;;;4.07;;
80133;SDS011;69443;51.442;10.564;2023-04-30T06:01:16;5.82;;;4.20;;
80133;SDS011;69443;51.442;10.564;2023-04-30T06:03:43;6.30;;;4.00;;
80133;SDS011;69443;51.442;10.564;2023-04-30T06:06:08;5.95;;;4.45;;
80133;SDS011;69443;51.442;10.564;2023-04-30T06:08:34;6.57;;;4.00;;
80133;SDS011;69443;51.442;10.564;2023-04-30T06:11:00;6.60;;;4.15;;
80133;SDS011;69443;51.442;10.564;2023-04-30T06:13:27;8.95;;;4.38;;
80133;SDS011;69443;51.442;10.564;2023-04-30T06:15:53;7.93;;;4.15;;
80133;SDS011;69443;51.442;10.564;2023-04-30T06:18:18;8.15;;;4.78;;
80133;SDS011;69443;51.442;10.564;2023-04-30T06:20:44;7.10;;;4.32;;
80133;SDS011;69443;51.442;10.564;2023-04-30T06:23:10;8.88;;;5.72;;
80133;SDS011;69443;51.442;10.564;2023-04-30T06:25:35;8.77;;;5.50;;
80133;SDS011;69443;51.442;10.564;2023-04-30T06:28:01;9.10;;;5.03;;
80133;SDS011;69443;51.442;10.564;2023-04-30T06:30:26;9.07;;;5.65;;
80133;SDS011;69443;51.442;10.564;2023-04-30T06:32:52;11.05;;;6.22;;
80133;SDS011;69443;51.442;10.564;2023-04-30T06:35:17;10.35;;;5.38;;
80133;SDS011;69443;51.442;10.564;2023-04-30T06:37:42;3.17;;;2.15;;
80133;SDS011;69443;51.442;10.564;2023-04-30T06:40:08;9.52;;;5.53;;
80133;SDS011;69443;51.442;10.564;2023-04-30T06:42:33;9.52;;;5.38;;
80133;SDS011;69443;51.442;10.564;2023-04-30T06:45:00;9.80;;;6.22;;
80133;SDS011;69443;51.442;10.564;2023-04-30T06:47:30;11.77;;;5.53;;
80133;SDS011;69443;51.442;10.564;2023-04-30T06:50:00;12.95;;;6.30;;
80133;SDS011;69443;51.442;10.564;2023-04-30T06:52:26;9.90;;;5.00;;
80133;SDS011;69443;51.442;10.564;2023-04-30T06:54:51;9.45;;;5.47;;
80133;SDS011;69443;51.442;10.564;2023-04-30T06:57:17;11.68;;;5.30;;
80133;SDS011;69443;51.442;10.564;2023-04-30T06:59:42;7.45;;;4.85;;
80133;SDS011;69443;51.442;10.564;2023-04-30T07:02:08;9.77;;;5.15;;
80133;SDS011;69443;51.442;10.564;2023-04-30T07:04:33;10.32;;;5.05;;
80133;SDS011;69443;51.442;10.564;2023-04-30T07:06:59;7.57;;;5.00;;
80133;SDS011;69443;51.442;10.564;2023-04-30T07:09:26;7.90;;;5.57;;
80133;SDS011;69443;51.442;10.564;2023-04-30T07:11:52;8.52;;;4.57;;
80133;SDS011;69443;51.442;10.564;2023-04-30T07:14:18;9.95;;;5.60;;
80133;SDS011;69443;51.442;10.564;2023-04-30T07:16:43;8.75;;;4.95;;
80133;SDS011;69443;51.442;10.564;2023-04-30T07:19:09;10.10;;;5.28;;
80133;SDS011;69443;51.442;10.564;2023-04-30T07:21:34;7.65;;;5.60;;
80133;SDS011;69443;51.442;10.564;2023-04-30T07:24:00;7.50;;;5.20;;
80133;SDS011;69443;51.442;10.564;2023-04-30T07:26:25;6.38;;;4.88;;
80133;SDS011;69443;51.442;10.564;2023-04-30T07:28:51;7.35;;;5.30;;
80133;SDS011;69443;51.442;10.564;2023-04-30T07:31:16;8.75;;;5.28;;
80133;SDS011;69443;51.442;10.564;2023-04-30T07:33:43;7.38;;;4.85;;
80133;SDS011;69443;51.442;10.564;2023-04-30T07:36:08;6.82;;;4.78;;
80133;SDS011;69443;51.442;10.564;2023-04-30T07:38:34;8.18;;;4.85;;
80133;SDS011;69443;51.442;10.564;2023-04-30T07:41:00;7.88;;;4.72;;
80133;SDS011;69443;51.442;10.564;2023-04-30T07:43:26;6.45;;;4.40;;
80133;SDS011;69443;51.442;10.564;2023-04-30T07:45:52;6.75;;;4.88;;
80133;SDS011;69443;51.442;10.564;2023-04-30T07:48:18;9.00;;;4.90;;
80133;SDS011;69443;51.442;10.564;2023-04-30T07:50:48;5.38;;;3.90;;
80133;SDS011;69443;51.442;10.564;2023-04-30T07:53:13;8.65;;;4.50;;
80133;SDS011;69443;51.442;10.564;2023-04-30T07:55:40;7.95;;;4.95;;
80133;SDS011;69443;51.442;10.564;2023-04-30T07:58:06;7.25;;;5.30;;
80133;SDS011;69443;51.442;10.564;2023-04-30T08:00:31;6.80;;;5.07;;
80133;SDS011;69443;51.442;10.564;2023-04-30T08:02:57;7.85;;;4.88;;
80133;SDS011;69443;51.442;10.564;2023-04-30T08:05:24;9.73;;;6.13;;
80133;SDS011;69443;51.442;10.564;2023-04-30T08:07:50;12.48;;;6.40;;
80133;SDS011;69443;51.442;10.564;2023-04-30T08:10:15;7.90;;;5.97;;
80133;SDS011;69443;51.442;10.564;2023-04-30T08:12:41;8.15;;;5.80;;
80133;SDS011;69443;51.442;10.564;2023-04-30T08:15:06;10.23;;;5.65;;
80133;SDS011;69443;51.442;10.564;2023-04-30T08:17:32;9.07;;;5.97;;
80133;SDS011;69443;51.442;10.564;2023-04-30T08:19:59;9.90;;;5.70;;
80133;SDS011;69443;51.442;10.564;2023-04-30T08:22:25;11.93;;;6.25;;
80133;SDS011;69443;51.442;10.564;2023-04-30T08:24:50;9.98;;;5.72;;
80133;SDS011;69443;51.442;10.564;2023-04-30T08:27:16;9.82;;;5.18;;
80133;SDS011;69443;51.442;10.564;2023-04-30T08:29:41;7.75;;;5.90;;
80133;SDS011;69443;51.442;10.564;2023-04-30T08:32:07;7.57;;;5.38;;
80133;SDS011;69443;51.442;10.564;2023-04-30T08:34:33;7.13;;;5.63;;
80133;SDS011;69443;51.442;10.564;2023-04-30T08:36:58;8.35;;;5.80;;
80133;SDS011;69443;51.442;10.564;2023-04-30T08:39:24;10.27;;;5.38;;
80133;SDS011;69443;51.442;10.564;2023-04-30T08:41:51;7.13;;;5.22;;
80133;SDS011;69443;51.442;10.564;2023-04-30T08:44:20;12.57;;;5.93;;
80133;SDS011;69443;51.442;10.564;2023-04-30T08:46:48;7.93;;;5.72;;
80133;SDS011;69443;51.442;10.564;2023-04-30T08:49:17;8.77;;;5.57;;
80133;SDS011;69443;51.442;10.564;2023-04-30T08:51:42;3.60;;;2.88;;
80133;SDS011;69443;51.442;10.564;2023-04-30T08:54:09;10.27;;;5.55;;
80133;SDS011;69443;51.442;10.564;2023-04-30T08:56:36;11.85;;;6.47;;
80133;SDS011;69443;51.442;10.564;2023-04-30T08:59:02;10.25;;;5.53;;
80133;SDS011;69443;51.442;10.564;2023-04-30T09:01:28;8.82;;;5.25;;
80133;SDS011;69443;51.442;10.564;2023-04-30T09:03:54;7.82;;;5.00;;
80133;SDS011;69443;51.442;10.564;2023-04-30T09:06:20;9.55;;;5.78;;
80133;SDS011;69443;51.442;10.564;2023-04-30T09:08:47;9.15;;;6.07;;
80133;SDS011;69443;51.442;10.564;2023-04-30T09:13:48;7.40;;;5.50;;
80133;SDS011;69443;51.442;10.564;2023-04-30T09:16:16;10.60;;;5.45;;
80133;SDS011;69443;51.442;10.564;2023-04-30T09:18:42;8.90;;;5.82;;
80133;SDS011;69443;51.442;10.564;2023-04-30T09:21:07;8.10;;;5.35;;
80133;SDS011;69443;51.442;10.564;2023-04-30T09:23:33;9.05;;;5.75;;
80133;SDS011;69443;51.442;10.564;2023-04-30T09:25:58;7.72;;;5.80;;
80133;SDS011;69443;51.442;10.564;2023-04-30T09:28:24;7.80;;;5.50;;
80133;SDS011;69443;51.442;10.564;2023-04-30T09:30:52;6.80;;;4.80;;
80133;SDS011;69443;51.442;10.564;2023-04-30T09:33:20;7.47;;;5.25;;
80133;SDS011;69443;51.442;10.564;2023-04-30T09:35:46;8.77;;;5.18;;
80133;SDS011;69443;51.442;10.564;2023-04-30T09:38:29;8.18;;;4.80;;
80133;SDS011;69443;51.442;10.564;2023-04-30T09:40:57;6.38;;;4.60;;
80133;SDS011;69443;51.442;10.564;2023-04-30T09:43:24;7.88;;;5.30;;
80133;SDS011;69443;51.442;10.564;2023-04-30T09:45:50;6.00;;;4.82;;
80133;SDS011;69443;51.442;10.564;2023-04-30T09:48:22;5.10;;;3.28;;
80133;SDS011;69443;51.442;10.564;2023-04-30T09:50:49;5.25;;;3.35;;
80133;SDS011;69443;51.442;10.564;2023-04-30T09:53:15;8.32;;;4.18;;
80133;SDS011;69443;51.442;10.564;2023-04-30T09:55:45;6.40;;;3.90;;
80133;SDS011;69443;51.442;10.564;2023-04-30T09:58:15;4.03;;;2.65;;
80133;SDS011;69443;51.442;10.564;2023-04-30T10:00:42;5.20;;;3.15;;
80133;SDS011;69443;51.442;10.564;2023-04-30T10:03:13;4.82;;;2.88;;
80133;SDS011;69443;51.442;10.564;2023-04-30T10:05:42;3.28;;;2.97;;
80133;SDS011;69443;51.442;10.564;2023-04-30T10:08:14;3.38;;;2.58;;
80133;SDS011;69443;51.442;10.564;2023-04-30T10:10:49;4.60;;;3.10;;
80133;SDS011;69443;51.442;10.564;2023-04-30T10:13:17;4.32;;;2.90;;
80133;SDS011;69443;51.442;10.564;2023-04-30T10:15:50;3.15;;;2.70;;
80133;SDS011;69443;51.442;10.564;2023-04-30T10:18:20;3.97;;;2.80;;
80133;SDS011;69443;51.442;10.564;2023-04-30T10:20:51;3.72;;;3.13;;
80133;SDS011;69443;51.442;10.564;2023-04-30T10:23:18;4.47;;;2.70;;
80133;SDS011;69443;51.442;10.564;2023-04-30T10:25:45;3.17;;;2.88;;
80133;SDS011;69443;51.442;10.564;2023-04-30T10:28:11;3.88;;;3.03;;
80133;SDS011;69443;51.442;10.564;2023-04-30T10:30:37;4.15;;;3.03;;
80133;SDS011;69443;51.442;10.564;2023-04-30T10:35:50;4.22;;;2.72;;
80133;SDS011;69443;51.442;10.564;2023-04-30T10:38:22;4.05;;;2.72;;
80133;SDS011;69443;51.442;10.564;2023-04-30T10:40:49;4.30;;;3.33;;
80133;SDS011;69443;51.442;10.564;2023-04-30T10:43:18;4.28;;;2.67;;
80133;SDS011;69443;51.442;10.564;2023-04-30T10:45:46;16.25;;;3.63;;
80133;SDS011;69443;51.442;10.564;2023-04-30T10:48:12;3.97;;;2.47;;
80133;SDS011;69443;51.442;10.564;2023-04-30T10:50:40;3.45;;;2.40;;
80133;SDS011;69443;51.442;10.564;2023-04-30T10:53:11;3.85;;;3.25;;
80133;SDS011;69443;51.442;10.564;2023-04-30T10:55:46;4.13;;;2.50;;
80133;SDS011;69443;51.442;10.564;2023-04-30T10:58:29;3.30;;;2.35;;
80133;SDS011;69443;51.442;10.564;2023-04-30T11:01:08;3.05;;;2.20;;
80133;SDS011;69443;51.442;10.564;2023-04-30T11:03:36;3.33;;;1.92;;
80133;SDS011;69443;51.442;10.564;2023-04-30T11:06:10;4.18;;;2.42;;
80133;SDS011;69443;51.442;10.564;2023-04-30T11:08:38;4.13;;;2.20;;
80133;SDS011;69443;51.442;10.564;2023-04-30T11:11:04;4.45;;;2.60;;
80133;SDS011;69443;51.442;10.564;2023-04-30T11:13:57;2.38;;;1.20;;
80133;SDS011;69443;51.442;10.564;2023-04-30T11:16:30;5.03;;;2.88;;
80133;SDS011;69443;51.442;10.564;2023-04-30T11:19:10;3.90;;;2.85;;
80133;SDS011;69443;51.442;10.564;2023-04-30T11:21:41;7.15;;;2.78;;
80133;SDS011;69443;51.442;10.564;2023-04-30T11:27:34;4.22;;;2.80;;
80133;SDS011;69443;51.442;10.564;2023-04-30T11:30:02;5.50;;;3.35;;
80133;SDS011;69443;51.442;10.564;2023-04-30T11:32:33;4.10;;;2.88;;
80133;SDS011;69443;51.442;10.564;2023-04-30T11:35:00;3.88;;;2.67;;
80133;SDS011;69443;51.442;10.564;2023-04-30T11:37:33;1.60;;;1.50;;
80133;SDS011;69443;51.442;10.564;2023-04-30T11:40:04;3.28;;;2.22;;
80133;SDS011;69443;51.442;10.564;2023-04-30T11:42:32;3.90;;;2.78;;
80133;SDS011;69443;51.442;10.564;2023-04-30T11:47:48;4.97;;;2.90;;
80133;SDS011;69443;51.442;10.564;2023-04-30T11:50:16;1.48;;;1.30;;
80133;SDS011;69443;51.442;10.564;2023-04-30T11:52:50;3.80;;;2.60;;
80133;SDS011;69443;51.442;10.564;2023-04-30T11:55:17;5.28;;;2.90;;
80133;SDS011;69443;51.442;10.564;2023-04-30T11:57:44;4.22;;;2.83;;
80133;SDS011;69443;51.442;10.564;2023-04-30T12:00:14;5.18;;;2.85;;
80133;SDS011;69443;51.442;10.564;2023-04-30T12:03:00;4.75;;;2.80;;
80133;SDS011;69443;51.442;10.564;2023-04-30T12:05:27;2.92;;;1.98;;
80133;SDS011;69443;51.442;10.564;2023-04-30T12:07:56;3.80;;;2.72;;
80133;SDS011;69443;51.442;10.564;2023-04-30T12:10:24;3.58;;;2.92;;
80133;SDS011;69443;51.442;10.564;2023-04-30T12:12:50;5.50;;;2.80;;
80133;SDS011;69443;51.442;10.564;2023-04-30T12:15:17;2.20;;;1.90;;
80133;SDS011;69443;51.442;10.564;2023-04-30T12:17:56;3.85;;;2.95;;
80133;SDS011;69443;51.442;10.564;2023-04-30T12:20:24;3.10;;;2.55;;
80133;SDS011;69443;51.442;10.564;2023-04-30T12:22:50;5.70;;;3.10;;
80133;SDS011;69443;51.442;10.564;2023-04-30T12:25:17;3.38;;;2.53;;
80133;SDS011;69443;51.442;10.564;2023-04-30T12:27:44;2.17;;;1.40;;
80133;SDS011;69443;51.442;10.564;2023-04-30T12:30:12;4.53;;;2.75;;
80133;SDS011;69443;51.442;10.564;2023-04-30T12:32:41;3.30;;;2.80;;
80133;SDS011;69443;51.442;10.564;2023-04-30T12:35:12;5.35;;;2.92;;
80133;SDS011;69443;51.442;10.564;2023-04-30T12:40:12;2.63;;;2.40;;
80133;SDS011;69443;51.442;10.564;2023-04-30T12:42:38;3.00;;;2.22;;
80133;SDS011;69443;51.442;10.564;2023-04-30T12:45:06;2.65;;;2.08;;
80133;SDS011;69443;51.442;10.564;2023-04-30T12:47:36;4.22;;;2.10;;
80133;SDS011;69443;51.442;10.564;2023-04-30T12:50:03;4.50;;;2.50;;
80133;SDS011;69443;51.442;10.564;2023-04-30T12:52:31;3.88;;;2.53;;
80133;SDS011;69443;51.442;10.564;2023-04-30T12:55:04;3.13;;;2.05;;
80133;SDS011;69443;51.442;10.564;2023-04-30T12:58:01;4.18;;;2.53;;
80133;SDS011;69443;51.442;10.564;2023-04-30T13:03:11;2.88;;;2.33;;
80133;SDS011;69443;51.442;10.564;2023-04-30T13:05:37;5.43;;;2.60;;
80133;SDS011;69443;51.442;10.564;2023-04-30T13:08:04;3.55;;;2.58;;
80133;SDS011;69443;51.442;10.564;2023-04-30T13:10:30;2.22;;;2.03;;
80133;SDS011;69443;51.442;10.564;2023-04-30T13:12:56;3.55;;;2.45;;
80133;SDS011;69443;51.442;10.564;2023-04-30T13:15:22;4.45;;;2.63;;
80133;SDS011;69443;51.442;10.564;2023-04-30T13:17:47;5.35;;;3.13;;
80133;SDS011;69443;51.442;10.564;2023-04-30T13:20:14;3.85;;;2.47;;
80133;SDS011;69443;51.442;10.564;2023-04-30T13:22:40;4.55;;;2.40;;
80133;SDS011;69443;51.442;10.564;2023-04-30T13:25:06;3.92;;;2.42;;
80133;SDS011;69443;51.442;10.564;2023-04-30T13:27:32;3.90;;;2.78;;
80133;SDS011;69443;51.442;10.564;2023-04-30T13:29:58;4.13;;;2.60;;
80133;SDS011;69443;51.442;10.564;2023-04-30T13:32:23;4.15;;;2.60;;
80133;SDS011;69443;51.442;10.564;2023-04-30T13:34:49;2.67;;;2.13;;
80133;SDS011;69443;51.442;10.564;2023-04-30T13:37:16;3.33;;;2.60;;
80133;SDS011;69443;51.442;10.564;2023-04-30T13:39:42;4.88;;;2.50;;
80133;SDS011;69443;51.442;10.564;2023-04-30T13:42:07;3.72;;;2.63;;
80133;SDS011;69443;51.442;10.564;2023-04-30T13:44:33;4.88;;;2.50;;
80133;SDS011;69443;51.442;10.564;2023-04-30T13:46:59;5.90;;;2.70;;
80133;SDS011;69443;51.442;10.564;2023-04-30T13:49:27;4.03;;;2.45;;
80133;SDS011;69443;51.442;10.564;2023-04-30T13:51:52;3.03;;;2.33;;
80133;SDS011;69443;51.442;10.564;2023-04-30T13:54:17;3.95;;;2.33;;
80133;SDS011;69443;51.442;10.564;2023-04-30T13:56:43;4.05;;;2.55;;
80133;SDS011;69443;51.442;10.564;2023-04-30T13:59:09;7.10;;;2.63;;
80133;SDS011;69443;51.442;10.564;2023-04-30T14:01:34;3.03;;;2.63;;
80133;SDS011;69443;51.442;10.564;2023-04-30T14:04:00;4.03;;;2.70;;
80133;SDS011;69443;51.442;10.564;2023-04-30T14:06:26;2.53;;;1.40;;
80133;SDS011;69443;51.442;10.564;2023-04-30T14:08:53;4.72;;;2.78;;
80133;SDS011;69443;51.442;10.564;2023-04-30T14:11:18;2.67;;;1.80;;
80133;SDS011;69443;51.442;10.564;2023-04-30T14:13:44;3.13;;;2.28;;
80133;SDS011;69443;51.442;10.564;2023-04-30T14:16:09;4.72;;;2.30;;
80133;SDS011;69443;51.442;10.564;2023-04-30T14:18:34;4.05;;;2.83;;
80133;SDS011;69443;51.442;10.564;2023-04-30T14:21:00;3.67;;;2.22;;
80133;SDS011;69443;51.442;10.564;2023-04-30T14:23:25;4.78;;;2.70;;
80133;SDS011;69443;51.442;10.564;2023-04-30T14:25:55;4.00;;;2.50;;
80133;SDS011;69443;51.442;10.564;2023-04-30T14:28:20;5.10;;;2.47;;
80133;SDS011;69443;51.442;10.564;2023-04-30T14:30:46;4.47;;;2.80;;
80133;SDS011;69443;51.442;10.564;2023-04-30T14:33:11;5.25;;;2.92;;
80133;SDS011;69443;51.442;10.564;2023-04-30T14:35:38;2.28;;;1.77;;
80133;SDS011;69443;51.442;10.564;2023-04-30T14:38:04;5.93;;;2.50;;
80133;SDS011;69443;51.442;10.564;2023-04-30T14:40:29;4.22;;;2.70;;
80133;SDS011;69443;51.442;10.564;2023-04-30T14:42:55;3.58;;;2.53;;
80133;SDS011;69443;51.442;10.564;2023-04-30T14:45:21;4.72;;;2.42;;
80133;SDS011;69443;51.442;10.564;2023-04-30T14:47:47;4.88;;;2.80;;
80133;SDS011;69443;51.442;10.564;2023-04-30T14:50:12;6.43;;;2.42;;
80133;SDS011;69443;51.442;10.564;2023-04-30T14:52:38;3.08;;;2.33;;
80133;SDS011;69443;51.442;10.564;2023-04-30T14:55:03;3.25;;;2.70;;
80133;SDS011;69443;51.442;10.564;2023-04-30T14:57:29;3.25;;;2.40;;
80133;SDS011;69443;51.442;10.564;2023-04-30T14:59:55;4.60;;;2.47;;
80133;SDS011;69443;51.442;10.564;2023-04-30T15:02:23;4.47;;;2.30;;
80133;SDS011;69443;51.442;10.564;2023-04-30T15:04:48;3.67;;;2.15;;
80133;SDS011;69443;51.442;10.564;2023-04-30T15:07:14;3.42;;;2.28;;
80133;SDS011;69443;51.442;10.564;2023-04-30T15:09:39;5.63;;;2.72;;